sensor_id;sensor_type;location;lat;lon;timestamp;P1;durP1;ratioP1;P2;durP2;ratioP2
63350;SDS011;64988;51.058;17.040;2023-01-15T00:00:51;4.18;;;2.30;;
63350;SDS011;64988;51.058;17.040;2023-01-15T00:06:43;6.07;;;1.80;;
63350;SDS011;64988;51.058;17.040;2023-01-15T00:12:37;5.80;;;2.13;;
63350;SDS011;64988;51.058;17.040;2023-01-15T00:18:30;8.27;;;2.50;;
63350;SDS011;64988;51.058;17.040;2023-01-15T00:24:23;4.32;;;2.00;;
63350;SDS011;64988;51.058;17.040;2023-01-15T00:30:38;5.80;;;2.03;;
63350;SDS011;64988;51.058;17.040;2023-01-15T00:36:32;4.22;;;1.98;;
63350;SDS011;64988;51.058;17.040;2023-01-15T00:42:25;5.30;;;2.23;;
63350;SDS011;64988;51.058;17.040;2023-01-15T00:48:18;5.15;;;2.70;;
63350;SDS011;64988;51.058;17.040;2023-01-15T00:54:11;5.60;;;2.65;;
63350;SDS011;64988;51.058;17.040;2023-01-15T01:00:04;4.65;;;2.40;;
63350;SDS011;64988;51.058;17.040;2023-01-15T01:11:53;6.45;;;2.40;;
63350;SDS011;64988;51.058;17.040;2023-01-15T01:17:47;4.20;;;2.57;;
63350;SDS011;64988;51.058;17.040;2023-01-15T01:23:39;3.80;;;2.43;;
63350;SDS011;64988;51.058;17.040;2023-01-15T01:29:31;3.13;;;2.13;;
63350;SDS011;64988;51.058;17.040;2023-01-15T01:35:24;4.83;;;2.20;;
63350;SDS011;64988;51.058;17.040;2023-01-15T01:41:17;2.40;;;2.10;;
63350;SDS011;64988;51.058;17.040;2023-01-15T01:47:10;4.20;;;2.50;;
63350;SDS011;64988;51.058;17.040;2023-01-15T01:53:17;4.35;;;2.33;;
63350;SDS011;64988;51.058;17.040;2023-01-15T01:59:15;3.45;;;2.40;;
63350;SDS011;64988;51.058;17.040;2023-01-15T02:05:12;4.93;;;2.40;;
63350;SDS011;64988;51.058;17.040;2023-01-15T02:11:14;2.78;;;1.95;;
63350;SDS011;64988;51.058;17.040;2023-01-15T02:17:15;3.00;;;2.22;;
63350;SDS011;64988;51.058;17.040;2023-01-15T02:35:44;2.67;;;2.13;;
63350;SDS011;64988;51.058;17.040;2023-01-15T02:41:49;6.28;;;2.63;;
63350;SDS011;64988;51.058;17.040;2023-01-15T02:47:47;5.45;;;2.80;;
63350;SDS011;64988;51.058;17.040;2023-01-15T02:53:43;4.55;;;2.40;;
63350;SDS011;64988;51.058;17.040;2023-01-15T02:59:42;3.75;;;1.85;;
63350;SDS011;64988;51.058;17.040;2023-01-15T03:05:44;2.60;;;1.95;;
63350;SDS011;64988;51.058;17.040;2023-01-15T03:11:46;3.20;;;2.03;;
63350;SDS011;64988;51.058;17.040;2023-01-15T03:17:48;1.57;;;1.47;;
63350;SDS011;64988;51.058;17.040;2023-01-15T03:23:46;3.60;;;2.03;;
63350;SDS011;64988;51.058;17.040;2023-01-15T03:29:48;2.95;;;1.80;;
63350;SDS011;64988;51.058;17.040;2023-01-15T03:35:49;2.65;;;1.73;;
63350;SDS011;64988;51.058;17.040;2023-01-15T03:48:10;2.42;;;1.85;;
63350;SDS011;64988;51.058;17.040;2023-01-15T04:00:56;2.00;;;1.40;;
63350;SDS011;64988;51.058;17.040;2023-01-15T04:06:52;3.13;;;1.60;;
63350;SDS011;64988;51.058;17.040;2023-01-15T04:12:46;2.05;;;1.15;;
63350;SDS011;64988;51.058;17.040;2023-01-15T04:18:41;2.30;;;1.15;;
63350;SDS011;64988;51.058;17.040;2023-01-15T04:24:34;2.73;;;1.57;;
63350;SDS011;64988;51.058;17.040;2023-01-15T04:30:27;3.43;;;1.57;;
63350;SDS011;64988;51.058;17.040;2023-01-15T04:36:20;3.57;;;1.90;;
63350;SDS011;64988;51.058;17.040;2023-01-15T04:42:13;3.00;;;1.77;;
63350;SDS011;64988;51.058;17.040;2023-01-15T04:48:24;3.63;;;1.92;;
63350;SDS011;64988;51.058;17.040;2023-01-15T04:54:17;1.73;;;1.38;;
63350;SDS011;64988;51.058;17.040;2023-01-15T05:06:42;1.88;;;1.25;;
63350;SDS011;64988;51.058;17.040;2023-01-15T05:12:35;1.73;;;1.33;;
63350;SDS011;64988;51.058;17.040;2023-01-15T05:18:27;2.00;;;1.10;;
63350;SDS011;64988;51.058;17.040;2023-01-15T05:24:20;3.55;;;2.35;;
63350;SDS011;64988;51.058;17.040;2023-01-15T05:30:13;2.80;;;2.17;;
63350;SDS011;64988;51.058;17.040;2023-01-15T05:36:09;2.97;;;2.05;;
63350;SDS011;64988;51.058;17.040;2023-01-15T05:42:03;2.33;;;1.52;;
63350;SDS011;64988;51.058;17.040;2023-01-15T05:47:55;1.83;;;1.73;;
63350;SDS011;64988;51.058;17.040;2023-01-15T05:53:47;3.67;;;1.70;;
63350;SDS011;64988;51.058;17.040;2023-01-15T05:59:40;1.80;;;1.63;;
63350;SDS011;64988;51.058;17.040;2023-01-15T06:05:33;2.03;;;1.67;;
63350;SDS011;64988;51.058;17.040;2023-01-15T06:11:25;2.30;;;1.63;;
63350;SDS011;64988;51.058;17.040;2023-01-15T06:17:18;2.53;;;1.77;;
63350;SDS011;64988;51.058;17.040;2023-01-15T06:23:11;3.17;;;2.22;;
63350;SDS011;64988;51.058;17.040;2023-01-15T06:29:04;6.72;;;1.70;;
63350;SDS011;64988;51.058;17.040;2023-01-15T06:34:56;3.53;;;1.90;;
63350;SDS011;64988;51.058;17.040;2023-01-15T06:40:50;1.70;;;1.60;;
63350;SDS011;64988;51.058;17.040;2023-01-15T06:46:44;4.10;;;2.70;;
63350;SDS011;64988;51.058;17.040;2023-01-15T06:52:56;3.85;;;2.55;;
63350;SDS011;64988;51.058;17.040;2023-01-15T06:58:48;4.10;;;2.35;;
63350;SDS011;64988;51.058;17.040;2023-01-15T07:04:41;1.80;;;1.70;;
63350;SDS011;64988;51.058;17.040;2023-01-15T07:10:34;1.42;;;1.33;;
63350;SDS011;64988;51.058;17.040;2023-01-15T07:16:26;3.50;;;1.65;;
63350;SDS011;64988;51.058;17.040;2023-01-15T07:22:21;1.88;;;1.58;;
63350;SDS011;64988;51.058;17.040;2023-01-15T07:28:14;2.90;;;1.87;;
63350;SDS011;64988;51.058;17.040;2023-01-15T07:34:06;3.67;;;2.10;;
63350;SDS011;64988;51.058;17.040;2023-01-15T07:39:59;2.72;;;2.53;;
63350;SDS011;64988;51.058;17.040;2023-01-15T07:45:52;3.33;;;2.50;;
63350;SDS011;64988;51.058;17.040;2023-01-15T07:52:03;2.30;;;1.90;;
63350;SDS011;64988;51.058;17.040;2023-01-15T07:57:56;2.75;;;1.77;;
63350;SDS011;64988;51.058;17.040;2023-01-15T08:03:49;2.70;;;1.98;;
63350;SDS011;64988;51.058;17.040;2023-01-15T08:09:41;5.28;;;2.47;;
63350;SDS011;64988;51.058;17.040;2023-01-15T08:15:39;4.45;;;2.75;;
63350;SDS011;64988;51.058;17.040;2023-01-15T08:21:34;2.67;;;1.92;;
63350;SDS011;64988;51.058;17.040;2023-01-15T08:27:26;8.67;;;2.20;;
63350;SDS011;64988;51.058;17.040;2023-01-15T08:33:21;3.80;;;2.45;;
63350;SDS011;64988;51.058;17.040;2023-01-15T08:39:14;4.05;;;2.35;;
63350;SDS011;64988;51.058;17.040;2023-01-15T08:45:07;3.67;;;2.60;;
63350;SDS011;64988;51.058;17.040;2023-01-15T08:51:07;3.60;;;2.55;;
63350;SDS011;64988;51.058;17.040;2023-01-15T08:57:02;3.23;;;2.40;;
63350;SDS011;64988;51.058;17.040;2023-01-15T09:08:49;3.08;;;2.55;;
63350;SDS011;64988;51.058;17.040;2023-01-15T09:14:42;3.92;;;2.60;;
63350;SDS011;64988;51.058;17.040;2023-01-15T09:20:53;3.20;;;2.55;;
63350;SDS011;64988;51.058;17.040;2023-01-15T09:26:46;2.43;;;2.20;;
63350;SDS011;64988;51.058;17.040;2023-01-15T09:32:39;5.47;;;2.42;;
63350;SDS011;64988;51.058;17.040;2023-01-15T09:38:31;4.47;;;3.13;;
63350;SDS011;64988;51.058;17.040;2023-01-15T09:56:41;3.22;;;2.45;;
63350;SDS011;64988;51.058;17.040;2023-01-15T10:02:38;3.85;;;2.38;;
63350;SDS011;64988;51.058;17.040;2023-01-15T10:08:44;2.92;;;2.35;;
63350;SDS011;64988;51.058;17.040;2023-01-15T10:14:57;4.72;;;3.00;;
63350;SDS011;64988;51.058;17.040;2023-01-15T10:33:28;6.35;;;3.05;;
63350;SDS011;64988;51.058;17.040;2023-01-15T10:45:56;4.63;;;3.10;;
63350;SDS011;64988;51.058;17.040;2023-01-15T10:51:52;9.65;;;3.22;;
63350;SDS011;64988;51.058;17.040;2023-01-15T10:57:53;4.97;;;3.10;;
63350;SDS011;64988;51.058;17.040;2023-01-15T11:04:01;6.78;;;3.20;;
63350;SDS011;64988;51.058;17.040;2023-01-15T11:09:54;3.53;;;3.13;;
63350;SDS011;64988;51.058;17.040;2023-01-15T11:15:56;5.47;;;2.85;;
63350;SDS011;64988;51.058;17.040;2023-01-15T11:22:08;5.45;;;3.63;;
63350;SDS011;64988;51.058;17.040;2023-01-15T11:28:04;2.95;;;2.30;;
63350;SDS011;64988;51.058;17.040;2023-01-15T11:34:02;5.13;;;3.38;;
63350;SDS011;64988;51.058;17.040;2023-01-15T11:39:58;3.90;;;3.15;;
63350;SDS011;64988;51.058;17.040;2023-01-15T11:46:02;3.92;;;3.20;;
63350;SDS011;64988;51.058;17.040;2023-01-15T11:52:15;5.72;;;3.20;;
63350;SDS011;64988;51.058;17.040;2023-01-15T11:58:11;5.47;;;3.20;;
63350;SDS011;64988;51.058;17.040;2023-01-15T12:04:06;5.40;;;3.55;;
63350;SDS011;64988;51.058;17.040;2023-01-15T12:16:44;8.70;;;5.43;;
63350;SDS011;64988;51.058;17.040;2023-01-15T12:22:56;6.82;;;3.70;;
63350;SDS011;64988;51.058;17.040;2023-01-15T12:29:05;5.40;;;3.45;;
63350;SDS011;64988;51.058;17.040;2023-01-15T12:35:14;6.97;;;4.05;;
63350;SDS011;64988;51.058;17.040;2023-01-15T12:41:19;6.82;;;4.75;;
63350;SDS011;64988;51.058;17.040;2023-01-15T12:47:19;5.22;;;2.90;;
63350;SDS011;64988;51.058;17.040;2023-01-15T13:05:38;5.47;;;1.27;;
63350;SDS011;64988;51.058;17.040;2023-01-15T13:11:38;1.87;;;1.50;;
63350;SDS011;64988;51.058;17.040;2023-01-15T13:23:40;3.97;;;1.70;;
63350;SDS011;64988;51.058;17.040;2023-01-15T13:36:32;9.38;;;4.15;;
63350;SDS011;64988;51.058;17.040;2023-01-15T13:42:04;5.38;;;2.60;;
63350;SDS011;64988;51.058;17.040;2023-01-15T13:48:19;4.05;;;2.83;;
63350;SDS011;64988;51.058;17.040;2023-01-15T13:54:17;4.95;;;3.20;;
63350;SDS011;64988;51.058;17.040;2023-01-15T14:12:37;8.43;;;4.60;;
63350;SDS011;64988;51.058;17.040;2023-01-15T14:37:31;5.22;;;3.10;;
63350;SDS011;64988;51.058;17.040;2023-01-15T14:43:35;6.65;;;4.07;;
63350;SDS011;64988;51.058;17.040;2023-01-15T14:49:41;5.78;;;3.60;;
63350;SDS011;64988;51.058;17.040;2023-01-15T15:07:58;9.35;;;5.43;;
63350;SDS011;64988;51.058;17.040;2023-01-15T15:13:51;12.15;;;6.40;;
63350;SDS011;64988;51.058;17.040;2023-01-15T15:19:52;13.85;;;6.97;;
63350;SDS011;64988;51.058;17.040;2023-01-15T15:25:55;8.48;;;4.80;;
63350;SDS011;64988;51.058;17.040;2023-01-15T15:31:56;8.65;;;4.95;;
63350;SDS011;64988;51.058;17.040;2023-01-15T15:37:52;14.48;;;7.53;;
63350;SDS011;64988;51.058;17.040;2023-01-15T15:43:48;10.73;;;5.72;;
63350;SDS011;64988;51.058;17.040;2023-01-15T15:50:05;9.30;;;4.75;;
63350;SDS011;64988;51.058;17.040;2023-01-15T15:55:58;12.43;;;4.85;;
63350;SDS011;64988;51.058;17.040;2023-01-15T16:01:52;10.45;;;6.50;;
63350;SDS011;64988;51.058;17.040;2023-01-15T16:07:46;17.20;;;7.57;;
63350;SDS011;64988;51.058;17.040;2023-01-15T16:13:48;13.93;;;7.43;;
63350;SDS011;64988;51.058;17.040;2023-01-15T16:19:44;16.10;;;8.68;;
63350;SDS011;64988;51.058;17.040;2023-01-15T16:25:40;16.23;;;7.05;;
63350;SDS011;64988;51.058;17.040;2023-01-15T16:31:34;14.38;;;7.07;;
63350;SDS011;64988;51.058;17.040;2023-01-15T16:37:30;11.90;;;6.70;;
63350;SDS011;64988;51.058;17.040;2023-01-15T16:43:25;12.52;;;6.75;;
63350;SDS011;64988;51.058;17.040;2023-01-15T17:01:33;26.08;;;12.80;;
63350;SDS011;64988;51.058;17.040;2023-01-15T17:07:31;21.33;;;11.02;;
63350;SDS011;64988;51.058;17.040;2023-01-15T17:19:26;18.75;;;10.63;;
63350;SDS011;64988;51.058;17.040;2023-01-15T17:37:27;20.90;;;11.20;;
63350;SDS011;64988;51.058;17.040;2023-01-15T17:43:20;25.53;;;11.03;;
63350;SDS011;64988;51.058;17.040;2023-01-15T17:49:14;24.92;;;12.65;;
63350;SDS011;64988;51.058;17.040;2023-01-15T17:55:16;24.08;;;11.38;;
63350;SDS011;64988;51.058;17.040;2023-01-15T18:01:29;17.88;;;8.25;;
63350;SDS011;64988;51.058;17.040;2023-01-15T18:07:45;15.02;;;8.35;;
63350;SDS011;64988;51.058;17.040;2023-01-15T18:13:39;17.80;;;9.25;;
63350;SDS011;64988;51.058;17.040;2023-01-15T18:19:33;14.88;;;8.10;;
63350;SDS011;64988;51.058;17.040;2023-01-15T18:31:19;23.47;;;12.77;;
63350;SDS011;64988;51.058;17.040;2023-01-15T18:37:11;23.20;;;11.70;;
63350;SDS011;64988;51.058;17.040;2023-01-15T18:49:16;17.67;;;8.95;;
63350;SDS011;64988;51.058;17.040;2023-01-15T18:55:09;15.90;;;9.20;;
63350;SDS011;64988;51.058;17.040;2023-01-15T19:01:05;16.90;;;9.20;;
63350;SDS011;64988;51.058;17.040;2023-01-15T19:06:59;17.77;;;9.77;;
63350;SDS011;64988;51.058;17.040;2023-01-15T19:12:51;15.27;;;8.63;;
63350;SDS011;64988;51.058;17.040;2023-01-15T19:18:44;18.48;;;8.60;;
63350;SDS011;64988;51.058;17.040;2023-01-15T19:24:45;13.52;;;8.07;;
63350;SDS011;64988;51.058;17.040;2023-01-15T19:30:38;26.37;;;10.80;;
63350;SDS011;64988;51.058;17.040;2023-01-15T19:36:33;22.00;;;11.35;;
63350;SDS011;64988;51.058;17.040;2023-01-15T19:42:28;29.15;;;13.90;;
63350;SDS011;64988;51.058;17.040;2023-01-15T19:48:39;17.67;;;10.55;;
63350;SDS011;64988;51.058;17.040;2023-01-15T19:54:50;15.02;;;8.57;;
63350;SDS011;64988;51.058;17.040;2023-01-15T20:00:50;15.23;;;7.93;;
63350;SDS011;64988;51.058;17.040;2023-01-15T20:06:43;15.23;;;8.48;;
63350;SDS011;64988;51.058;17.040;2023-01-15T20:12:36;13.18;;;8.07;;
63350;SDS011;64988;51.058;17.040;2023-01-15T20:18:48;17.60;;;8.77;;
63350;SDS011;64988;51.058;17.040;2023-01-15T20:24:42;16.88;;;9.15;;
63350;SDS011;64988;51.058;17.040;2023-01-15T20:30:35;20.75;;;10.10;;
63350;SDS011;64988;51.058;17.040;2023-01-15T20:36:28;19.88;;;11.30;;
63350;SDS011;64988;51.058;17.040;2023-01-15T20:42:25;23.50;;;11.48;;
63350;SDS011;64988;51.058;17.040;2023-01-15T20:48:39;20.25;;;11.75;;
63350;SDS011;64988;51.058;17.040;2023-01-15T20:54:50;18.17;;;9.10;;
63350;SDS011;64988;51.058;17.040;2023-01-15T21:00:43;18.55;;;8.90;;
63350;SDS011;64988;51.058;17.040;2023-01-15T21:06:36;20.17;;;8.13;;
63350;SDS011;64988;51.058;17.040;2023-01-15T21:12:29;12.97;;;6.37;;
63350;SDS011;64988;51.058;17.040;2023-01-15T21:18:22;13.40;;;7.28;;
63350;SDS011;64988;51.058;17.040;2023-01-15T21:24:17;11.05;;;6.95;;
63350;SDS011;64988;51.058;17.040;2023-01-15T21:30:10;13.73;;;7.17;;
63350;SDS011;64988;51.058;17.040;2023-01-15T21:36:08;11.93;;;5.40;;
63350;SDS011;64988;51.058;17.040;2023-01-15T21:42:03;10.27;;;5.25;;
63350;SDS011;64988;51.058;17.040;2023-01-15T21:48:14;7.38;;;4.20;;
63350;SDS011;64988;51.058;17.040;2023-01-15T21:54:08;10.55;;;4.05;;
63350;SDS011;64988;51.058;17.040;2023-01-15T22:00:02;13.10;;;5.28;;
63350;SDS011;64988;51.058;17.040;2023-01-15T22:06:01;8.63;;;4.20;;
63350;SDS011;64988;51.058;17.040;2023-01-15T22:11:55;12.25;;;4.90;;
63350;SDS011;64988;51.058;17.040;2023-01-15T22:17:50;7.40;;;3.42;;
63350;SDS011;64988;51.058;17.040;2023-01-15T22:23:44;5.05;;;2.30;;
63350;SDS011;64988;51.058;17.040;2023-01-15T22:29:40;3.85;;;2.03;;
63350;SDS011;64988;51.058;17.040;2023-01-15T22:35:34;6.15;;;2.47;;
63350;SDS011;64988;51.058;17.040;2023-01-15T22:41:27;4.07;;;2.80;;
63350;SDS011;64988;51.058;17.040;2023-01-15T22:47:37;8.10;;;2.35;;
63350;SDS011;64988;51.058;17.040;2023-01-15T22:53:30;2.83;;;1.83;;
63350;SDS011;64988;51.058;17.040;2023-01-15T22:59:23;4.97;;;1.50;;
63350;SDS011;64988;51.058;17.040;2023-01-15T23:05:15;1.47;;;1.27;;
63350;SDS011;64988;51.058;17.040;2023-01-15T23:11:09;3.83;;;1.90;;
63350;SDS011;64988;51.058;17.040;2023-01-15T23:17:06;6.07;;;2.95;;
63350;SDS011;64988;51.058;17.040;2023-01-15T23:22:59;2.67;;;1.67;;
63350;SDS011;64988;51.058;17.040;2023-01-15T23:28:52;4.38;;;1.92;;
63350;SDS011;64988;51.058;17.040;2023-01-15T23:34:45;3.30;;;1.60;;
63350;SDS011;64988;51.058;17.040;2023-01-15T23:40:42;3.35;;;1.35;;
63350;SDS011;64988;51.058;17.040;2023-01-15T23:46:34;5.00;;;2.00;;
63350;SDS011;64988;51.058;17.040;2023-01-15T23:52:27;2.35;;;1.60;;
63350;SDS011;64988;51.058;17.040;2023-01-15T23:58:19;5.35;;;1.83;;
